sensor_id;sensor_type;location;lat;lon;timestamp;P1;durP1;ratioP1;P2;durP2;ratioP2
51724;SDS011;37801;53.224;6.552;2023-02-08T00:00:21;22.75;;;13.55;;
51724;SDS011;37801;53.224;6.552;2023-02-08T00:02:48;21.30;;;12.85;;
51724;SDS011;37801;53.224;6.552;2023-02-08T00:05:15;23.58;;;13.25;;
51724;SDS011;37801;53.224;6.552;2023-02-08T00:07:41;20.95;;;13.13;;
51724;SDS011;37801;53.224;6.552;2023-02-08T00:10:07;21.80;;;13.13;;
51724;SDS011;37801;53.224;6.552;2023-02-08T00:12:34;24.38;;;13.93;;
51724;SDS011;37801;53.224;6.552;2023-02-08T00:15:00;22.80;;;12.65;;
51724;SDS011;37801;53.224;6.552;2023-02-08T00:17:27;22.15;;;12.93;;
51724;SDS011;37801;53.224;6.552;2023-02-08T00:19:53;23.35;;;13.60;;
51724;SDS011;37801;53.224;6.552;2023-02-08T00:22:19;22.38;;;13.35;;
51724;SDS011;37801;53.224;6.552;2023-02-08T00:24:45;24.95;;;13.55;;
51724;SDS011;37801;53.224;6.552;2023-02-08T00:27:12;21.50;;;12.80;;
51724;SDS011;37801;53.224;6.552;2023-02-08T00:29:39;20.95;;;12.57;;
51724;SDS011;37801;53.224;6.552;2023-02-08T00:32:05;19.85;;;12.25;;
51724;SDS011;37801;53.224;6.552;2023-02-08T00:34:32;22.15;;;13.43;;
51724;SDS011;37801;53.224;6.552;2023-02-08T00:36:59;20.95;;;12.38;;
51724;SDS011;37801;53.224;6.552;2023-02-08T00:39:25;21.40;;;12.70;;
51724;SDS011;37801;53.224;6.552;2023-02-08T00:41:51;20.88;;;11.90;;
51724;SDS011;37801;53.224;6.552;2023-02-08T00:44:17;19.10;;;12.57;;
51724;SDS011;37801;53.224;6.552;2023-02-08T00:46:44;22.30;;;12.90;;
51724;SDS011;37801;53.224;6.552;2023-02-08T00:49:10;21.67;;;12.38;;
51724;SDS011;37801;53.224;6.552;2023-02-08T00:51:36;20.35;;;13.07;;
51724;SDS011;37801;53.224;6.552;2023-02-08T00:54:02;19.85;;;12.82;;
51724;SDS011;37801;53.224;6.552;2023-02-08T00:56:29;20.00;;;13.07;;
51724;SDS011;37801;53.224;6.552;2023-02-08T00:58:55;21.35;;;13.13;;
51724;SDS011;37801;53.224;6.552;2023-02-08T01:01:22;18.63;;;12.18;;
51724;SDS011;37801;53.224;6.552;2023-02-08T01:03:48;19.08;;;12.85;;
51724;SDS011;37801;53.224;6.552;2023-02-08T01:06:15;20.20;;;12.15;;
51724;SDS011;37801;53.224;6.552;2023-02-08T01:08:42;20.55;;;12.95;;
51724;SDS011;37801;53.224;6.552;2023-02-08T01:11:09;20.52;;;12.77;;
51724;SDS011;37801;53.224;6.552;2023-02-08T01:13:37;20.15;;;12.57;;
51724;SDS011;37801;53.224;6.552;2023-02-08T01:16:04;18.05;;;12.90;;
51724;SDS011;37801;53.224;6.552;2023-02-08T01:18:30;21.38;;;13.60;;
51724;SDS011;37801;53.224;6.552;2023-02-08T01:21:02;21.35;;;12.98;;
51724;SDS011;37801;53.224;6.552;2023-02-08T01:23:28;21.00;;;13.20;;
51724;SDS011;37801;53.224;6.552;2023-02-08T01:25:54;20.27;;;12.98;;
51724;SDS011;37801;53.224;6.552;2023-02-08T01:28:20;19.50;;;12.57;;
51724;SDS011;37801;53.224;6.552;2023-02-08T01:30:46;19.35;;;11.57;;
51724;SDS011;37801;53.224;6.552;2023-02-08T01:33:12;20.05;;;12.50;;
51724;SDS011;37801;53.224;6.552;2023-02-08T01:35:38;21.23;;;12.73;;
51724;SDS011;37801;53.224;6.552;2023-02-08T01:38:05;22.02;;;13.85;;
51724;SDS011;37801;53.224;6.552;2023-02-08T01:40:31;21.38;;;12.85;;
51724;SDS011;37801;53.224;6.552;2023-02-08T01:42:57;19.63;;;12.85;;
51724;SDS011;37801;53.224;6.552;2023-02-08T01:45:24;22.65;;;12.63;;
51724;SDS011;37801;53.224;6.552;2023-02-08T01:47:54;19.65;;;12.35;;
51724;SDS011;37801;53.224;6.552;2023-02-08T01:50:22;22.13;;;13.20;;
51724;SDS011;37801;53.224;6.552;2023-02-08T01:52:49;20.70;;;13.20;;
51724;SDS011;37801;53.224;6.552;2023-02-08T01:55:26;19.45;;;12.63;;
51724;SDS011;37801;53.224;6.552;2023-02-08T01:57:53;22.60;;;12.98;;
51724;SDS011;37801;53.224;6.552;2023-02-08T02:00:21;19.90;;;12.43;;
51724;SDS011;37801;53.224;6.552;2023-02-08T02:02:47;20.30;;;12.93;;
51724;SDS011;37801;53.224;6.552;2023-02-08T02:05:17;19.95;;;12.60;;
51724;SDS011;37801;53.224;6.552;2023-02-08T02:07:44;21.42;;;13.30;;
51724;SDS011;37801;53.224;6.552;2023-02-08T02:10:15;21.55;;;12.70;;
51724;SDS011;37801;53.224;6.552;2023-02-08T02:12:42;19.65;;;11.88;;
51724;SDS011;37801;53.224;6.552;2023-02-08T02:15:09;19.35;;;12.15;;
51724;SDS011;37801;53.224;6.552;2023-02-08T02:17:36;22.30;;;13.27;;
51724;SDS011;37801;53.224;6.552;2023-02-08T02:33:34;21.75;;;13.07;;
51724;SDS011;37801;53.224;6.552;2023-02-08T02:35:59;21.27;;;12.65;;
51724;SDS011;37801;53.224;6.552;2023-02-08T02:43:22;20.83;;;12.65;;
51724;SDS011;37801;53.224;6.552;2023-02-08T02:46:12;18.92;;;12.52;;
51724;SDS011;37801;53.224;6.552;2023-02-08T02:51:24;20.77;;;12.93;;
51724;SDS011;37801;53.224;6.552;2023-02-08T02:56:36;20.60;;;13.23;;
51724;SDS011;37801;53.224;6.552;2023-02-08T02:59:04;19.92;;;12.88;;
51724;SDS011;37801;53.224;6.552;2023-02-08T03:01:31;22.88;;;13.55;;
51724;SDS011;37801;53.224;6.552;2023-02-08T03:03:57;18.92;;;12.50;;
51724;SDS011;37801;53.224;6.552;2023-02-08T03:09:17;20.67;;;13.30;;
51724;SDS011;37801;53.224;6.552;2023-02-08T03:11:50;18.73;;;12.50;;
51724;SDS011;37801;53.224;6.552;2023-02-08T03:16:54;22.02;;;13.27;;
51724;SDS011;37801;53.224;6.552;2023-02-08T03:22:00;21.73;;;13.38;;
51724;SDS011;37801;53.224;6.552;2023-02-08T03:24:42;21.77;;;13.50;;
51724;SDS011;37801;53.224;6.552;2023-02-08T03:32:28;20.08;;;13.07;;
51724;SDS011;37801;53.224;6.552;2023-02-08T03:34:52;20.02;;;12.80;;
51724;SDS011;37801;53.224;6.552;2023-02-08T03:37:25;19.85;;;12.93;;
51724;SDS011;37801;53.224;6.552;2023-02-08T03:39:54;22.70;;;14.15;;
51724;SDS011;37801;53.224;6.552;2023-02-08T03:42:23;19.85;;;12.32;;
51724;SDS011;37801;53.224;6.552;2023-02-08T03:44:51;20.27;;;12.82;;
51724;SDS011;37801;53.224;6.552;2023-02-08T03:47:24;22.95;;;13.68;;
51724;SDS011;37801;53.224;6.552;2023-02-08T03:49:52;21.75;;;13.32;;
51724;SDS011;37801;53.224;6.552;2023-02-08T03:52:18;20.85;;;13.38;;
51724;SDS011;37801;53.224;6.552;2023-02-08T03:54:52;22.67;;;13.02;;
51724;SDS011;37801;53.224;6.552;2023-02-08T03:57:21;21.00;;;13.07;;
51724;SDS011;37801;53.224;6.552;2023-02-08T03:59:51;20.92;;;13.82;;
51724;SDS011;37801;53.224;6.552;2023-02-08T04:02:20;20.88;;;12.90;;
51724;SDS011;37801;53.224;6.552;2023-02-08T04:04:47;21.98;;;13.40;;
51724;SDS011;37801;53.224;6.552;2023-02-08T04:07:15;21.45;;;13.27;;
51724;SDS011;37801;53.224;6.552;2023-02-08T04:09:41;19.02;;;12.48;;
51724;SDS011;37801;53.224;6.552;2023-02-08T04:12:07;21.02;;;13.32;;
51724;SDS011;37801;53.224;6.552;2023-02-08T04:14:33;21.60;;;13.40;;
51724;SDS011;37801;53.224;6.552;2023-02-08T04:17:00;20.15;;;13.02;;
51724;SDS011;37801;53.224;6.552;2023-02-08T04:19:26;21.45;;;13.40;;
51724;SDS011;37801;53.224;6.552;2023-02-08T04:21:52;20.52;;;13.23;;
51724;SDS011;37801;53.224;6.552;2023-02-08T04:24:18;18.88;;;12.82;;
51724;SDS011;37801;53.224;6.552;2023-02-08T04:26:45;19.23;;;12.45;;
51724;SDS011;37801;53.224;6.552;2023-02-08T04:29:11;23.33;;;13.50;;
51724;SDS011;37801;53.224;6.552;2023-02-08T04:31:37;21.88;;;13.05;;
51724;SDS011;37801;53.224;6.552;2023-02-08T04:34:03;19.58;;;12.30;;
51724;SDS011;37801;53.224;6.552;2023-02-08T04:36:29;21.80;;;13.52;;
51724;SDS011;37801;53.224;6.552;2023-02-08T04:38:56;21.50;;;13.98;;
51724;SDS011;37801;53.224;6.552;2023-02-08T04:41:22;22.00;;;13.38;;
51724;SDS011;37801;53.224;6.552;2023-02-08T04:43:48;23.13;;;13.50;;
51724;SDS011;37801;53.224;6.552;2023-02-08T04:46:14;23.20;;;13.73;;
51724;SDS011;37801;53.224;6.552;2023-02-08T04:48:40;22.33;;;13.45;;
51724;SDS011;37801;53.224;6.552;2023-02-08T04:51:06;20.80;;;13.35;;
51724;SDS011;37801;53.224;6.552;2023-02-08T04:53:32;20.85;;;13.73;;
51724;SDS011;37801;53.224;6.552;2023-02-08T04:55:59;21.10;;;13.27;;
51724;SDS011;37801;53.224;6.552;2023-02-08T04:58:25;19.98;;;13.00;;
51724;SDS011;37801;53.224;6.552;2023-02-08T05:00:51;21.80;;;14.02;;
51724;SDS011;37801;53.224;6.552;2023-02-08T05:03:17;20.50;;;13.95;;
51724;SDS011;37801;53.224;6.552;2023-02-08T05:05:43;21.88;;;13.82;;
51724;SDS011;37801;53.224;6.552;2023-02-08T05:08:10;22.25;;;13.77;;
51724;SDS011;37801;53.224;6.552;2023-02-08T05:10:36;21.15;;;13.15;;
51724;SDS011;37801;53.224;6.552;2023-02-08T05:13:02;21.48;;;13.27;;
51724;SDS011;37801;53.224;6.552;2023-02-08T05:15:28;19.55;;;12.57;;
51724;SDS011;37801;53.224;6.552;2023-02-08T05:17:54;23.60;;;13.90;;
51724;SDS011;37801;53.224;6.552;2023-02-08T05:20:20;20.08;;;13.27;;
51724;SDS011;37801;53.224;6.552;2023-02-08T05:22:46;19.52;;;13.00;;
51724;SDS011;37801;53.224;6.552;2023-02-08T05:25:13;21.00;;;13.60;;
51724;SDS011;37801;53.224;6.552;2023-02-08T05:27:39;21.25;;;13.15;;
51724;SDS011;37801;53.224;6.552;2023-02-08T05:30:05;24.77;;;14.15;;
51724;SDS011;37801;53.224;6.552;2023-02-08T05:32:32;21.77;;;13.57;;
51724;SDS011;37801;53.224;6.552;2023-02-08T05:34:58;21.63;;;14.60;;
51724;SDS011;37801;53.224;6.552;2023-02-08T05:37:24;22.88;;;13.82;;
51724;SDS011;37801;53.224;6.552;2023-02-08T05:39:50;19.85;;;13.40;;
51724;SDS011;37801;53.224;6.552;2023-02-08T05:42:16;22.83;;;14.07;;
51724;SDS011;37801;53.224;6.552;2023-02-08T05:44:42;24.15;;;14.82;;
51724;SDS011;37801;53.224;6.552;2023-02-08T05:47:08;22.23;;;14.13;;
51724;SDS011;37801;53.224;6.552;2023-02-08T05:49:34;22.48;;;14.48;;
51724;SDS011;37801;53.224;6.552;2023-02-08T05:52:01;24.38;;;14.48;;
51724;SDS011;37801;53.224;6.552;2023-02-08T05:54:27;23.35;;;14.82;;
51724;SDS011;37801;53.224;6.552;2023-02-08T05:56:53;23.30;;;14.07;;
51724;SDS011;37801;53.224;6.552;2023-02-08T05:59:19;24.60;;;14.35;;
51724;SDS011;37801;53.224;6.552;2023-02-08T06:01:45;23.85;;;14.98;;
51724;SDS011;37801;53.224;6.552;2023-02-08T06:04:11;24.10;;;14.75;;
51724;SDS011;37801;53.224;6.552;2023-02-08T06:06:37;24.83;;;15.25;;
51724;SDS011;37801;53.224;6.552;2023-02-08T06:09:03;23.42;;;15.45;;
51724;SDS011;37801;53.224;6.552;2023-02-08T06:11:30;22.90;;;15.10;;
51724;SDS011;37801;53.224;6.552;2023-02-08T06:13:56;25.40;;;15.48;;
51724;SDS011;37801;53.224;6.552;2023-02-08T06:16:22;24.70;;;14.55;;
51724;SDS011;37801;53.224;6.552;2023-02-08T06:18:48;24.75;;;15.35;;
51724;SDS011;37801;53.224;6.552;2023-02-08T06:21:14;24.42;;;15.48;;
51724;SDS011;37801;53.224;6.552;2023-02-08T06:23:40;23.88;;;15.05;;
51724;SDS011;37801;53.224;6.552;2023-02-08T06:26:06;23.02;;;15.10;;
51724;SDS011;37801;53.224;6.552;2023-02-08T06:28:33;25.73;;;15.77;;
51724;SDS011;37801;53.224;6.552;2023-02-08T06:30:59;25.08;;;15.57;;
51724;SDS011;37801;53.224;6.552;2023-02-08T06:33:25;24.00;;;15.05;;
51724;SDS011;37801;53.224;6.552;2023-02-08T06:35:51;23.45;;;15.07;;
51724;SDS011;37801;53.224;6.552;2023-02-08T06:38:17;26.65;;;16.20;;
51724;SDS011;37801;53.224;6.552;2023-02-08T06:40:47;23.58;;;15.70;;
51724;SDS011;37801;53.224;6.552;2023-02-08T06:43:14;28.60;;;15.10;;
51724;SDS011;37801;53.224;6.552;2023-02-08T06:45:40;26.38;;;15.50;;
51724;SDS011;37801;53.224;6.552;2023-02-08T06:48:08;23.33;;;15.02;;
51724;SDS011;37801;53.224;6.552;2023-02-08T06:50:34;24.40;;;14.82;;
51724;SDS011;37801;53.224;6.552;2023-02-08T06:53:02;23.08;;;14.48;;
51724;SDS011;37801;53.224;6.552;2023-02-08T06:55:28;24.17;;;14.95;;
51724;SDS011;37801;53.224;6.552;2023-02-08T06:57:54;22.05;;;14.52;;
51724;SDS011;37801;53.224;6.552;2023-02-08T07:00:21;22.13;;;14.82;;
51724;SDS011;37801;53.224;6.552;2023-02-08T07:02:47;28.13;;;15.88;;
51724;SDS011;37801;53.224;6.552;2023-02-08T07:05:13;23.30;;;15.02;;
51724;SDS011;37801;53.224;6.552;2023-02-08T07:07:39;22.52;;;14.55;;
51724;SDS011;37801;53.224;6.552;2023-02-08T07:10:06;23.92;;;15.02;;
51724;SDS011;37801;53.224;6.552;2023-02-08T07:12:32;24.52;;;14.98;;
51724;SDS011;37801;53.224;6.552;2023-02-08T07:14:58;24.58;;;14.50;;
51724;SDS011;37801;53.224;6.552;2023-02-08T07:17:25;21.90;;;14.38;;
51724;SDS011;37801;53.224;6.552;2023-02-08T07:19:51;26.50;;;15.07;;
51724;SDS011;37801;53.224;6.552;2023-02-08T07:22:17;25.98;;;15.98;;
51724;SDS011;37801;53.224;6.552;2023-02-08T07:24:43;22.17;;;14.50;;
51724;SDS011;37801;53.224;6.552;2023-02-08T07:27:10;23.27;;;15.20;;
51724;SDS011;37801;53.224;6.552;2023-02-08T07:29:36;26.05;;;15.10;;
51724;SDS011;37801;53.224;6.552;2023-02-08T07:32:03;23.45;;;14.65;;
51724;SDS011;37801;53.224;6.552;2023-02-08T07:34:31;24.65;;;15.60;;
51724;SDS011;37801;53.224;6.552;2023-02-08T07:36:57;27.15;;;14.80;;
51724;SDS011;37801;53.224;6.552;2023-02-08T07:39:23;25.48;;;15.63;;
51724;SDS011;37801;53.224;6.552;2023-02-08T07:41:50;24.15;;;14.57;;
51724;SDS011;37801;53.224;6.552;2023-02-08T07:44:16;24.95;;;15.45;;
51724;SDS011;37801;53.224;6.552;2023-02-08T07:46:42;22.67;;;14.45;;
51724;SDS011;37801;53.224;6.552;2023-02-08T07:49:08;25.33;;;15.85;;
51724;SDS011;37801;53.224;6.552;2023-02-08T07:51:35;24.80;;;14.93;;
51724;SDS011;37801;53.224;6.552;2023-02-08T07:54:01;24.95;;;15.18;;
51724;SDS011;37801;53.224;6.552;2023-02-08T07:56:27;23.77;;;14.55;;
51724;SDS011;37801;53.224;6.552;2023-02-08T07:58:53;21.58;;;13.38;;
51724;SDS011;37801;53.224;6.552;2023-02-08T08:01:20;22.25;;;14.27;;
51724;SDS011;37801;53.224;6.552;2023-02-08T08:03:46;25.33;;;14.55;;
51724;SDS011;37801;53.224;6.552;2023-02-08T08:06:12;24.17;;;15.02;;
51724;SDS011;37801;53.224;6.552;2023-02-08T08:08:38;22.67;;;14.50;;
51724;SDS011;37801;53.224;6.552;2023-02-08T08:11:04;26.38;;;15.48;;
51724;SDS011;37801;53.224;6.552;2023-02-08T08:13:30;24.35;;;15.00;;
51724;SDS011;37801;53.224;6.552;2023-02-08T08:15:57;23.27;;;14.32;;
51724;SDS011;37801;53.224;6.552;2023-02-08T08:18:23;23.23;;;14.50;;
51724;SDS011;37801;53.224;6.552;2023-02-08T08:20:49;24.42;;;14.57;;
51724;SDS011;37801;53.224;6.552;2023-02-08T08:23:15;23.00;;;15.18;;
51724;SDS011;37801;53.224;6.552;2023-02-08T08:25:43;23.02;;;14.60;;
51724;SDS011;37801;53.224;6.552;2023-02-08T08:28:09;21.20;;;13.18;;
51724;SDS011;37801;53.224;6.552;2023-02-08T08:30:36;22.92;;;14.40;;
51724;SDS011;37801;53.224;6.552;2023-02-08T08:33:02;23.30;;;14.13;;
51724;SDS011;37801;53.224;6.552;2023-02-08T08:35:28;22.92;;;14.52;;
51724;SDS011;37801;53.224;6.552;2023-02-08T08:37:54;25.27;;;13.95;;
51724;SDS011;37801;53.224;6.552;2023-02-08T08:40:20;21.55;;;13.80;;
51724;SDS011;37801;53.224;6.552;2023-02-08T08:42:46;23.85;;;14.75;;
51724;SDS011;37801;53.224;6.552;2023-02-08T08:45:12;24.15;;;14.27;;
51724;SDS011;37801;53.224;6.552;2023-02-08T08:47:40;23.58;;;15.02;;
51724;SDS011;37801;53.224;6.552;2023-02-08T08:50:06;21.30;;;13.95;;
51724;SDS011;37801;53.224;6.552;2023-02-08T08:52:32;24.63;;;15.05;;
51724;SDS011;37801;53.224;6.552;2023-02-08T08:54:58;24.35;;;14.95;;
51724;SDS011;37801;53.224;6.552;2023-02-08T08:57:24;23.15;;;14.90;;
51724;SDS011;37801;53.224;6.552;2023-02-08T08:59:50;22.58;;;14.60;;
51724;SDS011;37801;53.224;6.552;2023-02-08T09:02:17;25.13;;;15.45;;
51724;SDS011;37801;53.224;6.552;2023-02-08T09:04:43;24.90;;;15.05;;
51724;SDS011;37801;53.224;6.552;2023-02-08T09:07:09;21.38;;;13.68;;
51724;SDS011;37801;53.224;6.552;2023-02-08T09:09:35;24.52;;;14.57;;
51724;SDS011;37801;53.224;6.552;2023-02-08T09:12:02;23.52;;;14.57;;
51724;SDS011;37801;53.224;6.552;2023-02-08T09:14:28;22.90;;;14.23;;
51724;SDS011;37801;53.224;6.552;2023-02-08T09:16:54;24.00;;;14.32;;
51724;SDS011;37801;53.224;6.552;2023-02-08T09:19:21;21.55;;;13.77;;
51724;SDS011;37801;53.224;6.552;2023-02-08T09:21:47;22.55;;;13.82;;
51724;SDS011;37801;53.224;6.552;2023-02-08T09:24:13;20.15;;;13.35;;
51724;SDS011;37801;53.224;6.552;2023-02-08T09:26:39;22.35;;;13.70;;
51724;SDS011;37801;53.224;6.552;2023-02-08T09:29:05;21.95;;;13.45;;
51724;SDS011;37801;53.224;6.552;2023-02-08T09:31:33;20.17;;;12.80;;
51724;SDS011;37801;53.224;6.552;2023-02-08T09:34:02;19.92;;;12.95;;
51724;SDS011;37801;53.224;6.552;2023-02-08T09:36:33;21.08;;;12.88;;
51724;SDS011;37801;53.224;6.552;2023-02-08T09:39:01;22.25;;;13.23;;
51724;SDS011;37801;53.224;6.552;2023-02-08T09:46:44;21.73;;;12.45;;
51724;SDS011;37801;53.224;6.552;2023-02-08T09:49:15;20.25;;;12.82;;
51724;SDS011;37801;53.224;6.552;2023-02-08T09:51:47;20.58;;;12.75;;
51724;SDS011;37801;53.224;6.552;2023-02-08T09:54:18;20.05;;;11.93;;
51724;SDS011;37801;53.224;6.552;2023-02-08T09:56:45;21.40;;;12.48;;
51724;SDS011;37801;53.224;6.552;2023-02-08T09:59:14;17.70;;;11.82;;
51724;SDS011;37801;53.224;6.552;2023-02-08T10:01:41;21.20;;;11.88;;
51724;SDS011;37801;53.224;6.552;2023-02-08T10:06:45;21.17;;;11.98;;
51724;SDS011;37801;53.224;6.552;2023-02-08T10:09:12;18.98;;;12.10;;
51724;SDS011;37801;53.224;6.552;2023-02-08T10:32:14;23.23;;;11.23;;
51724;SDS011;37801;53.224;6.552;2023-02-08T10:34:37;17.17;;;9.90;;
51724;SDS011;37801;53.224;6.552;2023-02-08T10:37:16;16.88;;;10.23;;
51724;SDS011;37801;53.224;6.552;2023-02-08T10:39:43;17.92;;;10.75;;
51724;SDS011;37801;53.224;6.552;2023-02-08T10:42:11;17.95;;;10.38;;
51724;SDS011;37801;53.224;6.552;2023-02-08T10:49:54;18.00;;;10.63;;
51724;SDS011;37801;53.224;6.552;2023-02-08T10:52:22;16.60;;;10.43;;
51724;SDS011;37801;53.224;6.552;2023-02-08T10:54:48;17.00;;;10.43;;
51724;SDS011;37801;53.224;6.552;2023-02-08T10:57:24;16.45;;;10.10;;
51724;SDS011;37801;53.224;6.552;2023-02-08T10:59:53;15.15;;;9.30;;
51724;SDS011;37801;53.224;6.552;2023-02-08T11:02:24;16.02;;;9.77;;
51724;SDS011;37801;53.224;6.552;2023-02-08T11:05:01;15.35;;;9.32;;
51724;SDS011;37801;53.224;6.552;2023-02-08T11:07:28;17.25;;;9.85;;
51724;SDS011;37801;53.224;6.552;2023-02-08T11:09:57;15.65;;;9.10;;
51724;SDS011;37801;53.224;6.552;2023-02-08T11:12:37;14.93;;;9.07;;
51724;SDS011;37801;53.224;6.552;2023-02-08T11:15:05;15.45;;;9.65;;
51724;SDS011;37801;53.224;6.552;2023-02-08T11:17:45;18.25;;;9.90;;
51724;SDS011;37801;53.224;6.552;2023-02-08T11:20:19;14.95;;;9.02;;
51724;SDS011;37801;53.224;6.552;2023-02-08T11:22:47;16.27;;;9.65;;
51724;SDS011;37801;53.224;6.552;2023-02-08T11:25:29;16.65;;;10.25;;
51724;SDS011;37801;53.224;6.552;2023-02-08T11:27:56;18.27;;;9.80;;
51724;SDS011;37801;53.224;6.552;2023-02-08T11:30:24;16.50;;;9.60;;
51724;SDS011;37801;53.224;6.552;2023-02-08T11:35:35;13.57;;;8.25;;
51724;SDS011;37801;53.224;6.552;2023-02-08T11:38:01;14.65;;;8.05;;
51724;SDS011;37801;53.224;6.552;2023-02-08T11:40:33;13.57;;;7.80;;
51724;SDS011;37801;53.224;6.552;2023-02-08T11:43:00;11.90;;;7.45;;
51724;SDS011;37801;53.224;6.552;2023-02-08T11:45:28;13.25;;;7.28;;
51724;SDS011;37801;53.224;6.552;2023-02-08T11:47:55;12.60;;;7.07;;
51724;SDS011;37801;53.224;6.552;2023-02-08T11:52:51;11.35;;;6.63;;
51724;SDS011;37801;53.224;6.552;2023-02-08T11:55:24;10.40;;;6.32;;
51724;SDS011;37801;53.224;6.552;2023-02-08T11:58:01;13.15;;;7.03;;
51724;SDS011;37801;53.224;6.552;2023-02-08T12:03:01;11.95;;;6.45;;
51724;SDS011;37801;53.224;6.552;2023-02-08T12:21:25;10.95;;;5.65;;
51724;SDS011;37801;53.224;6.552;2023-02-08T12:24:30;9.40;;;5.07;;
51724;SDS011;37801;53.224;6.552;2023-02-08T12:26:52;7.10;;;4.25;;
51724;SDS011;37801;53.224;6.552;2023-02-08T12:29:25;8.40;;;4.72;;
51724;SDS011;37801;53.224;6.552;2023-02-08T12:34:25;9.05;;;4.90;;
51724;SDS011;37801;53.224;6.552;2023-02-08T12:51:04;7.72;;;4.47;;
51724;SDS011;37801;53.224;6.552;2023-02-08T12:53:41;6.63;;;3.97;;
51724;SDS011;37801;53.224;6.552;2023-02-08T12:56:13;7.45;;;4.05;;
51724;SDS011;37801;53.224;6.552;2023-02-08T12:58:49;8.60;;;4.63;;
51724;SDS011;37801;53.224;6.552;2023-02-08T13:01:20;7.85;;;4.38;;
51724;SDS011;37801;53.224;6.552;2023-02-08T13:06:17;7.97;;;4.40;;
51724;SDS011;37801;53.224;6.552;2023-02-08T13:13:54;7.65;;;4.78;;
51724;SDS011;37801;53.224;6.552;2023-02-08T13:16:25;9.43;;;4.70;;
51724;SDS011;37801;53.224;6.552;2023-02-08T13:18:55;6.72;;;4.07;;
51724;SDS011;37801;53.224;6.552;2023-02-08T13:21:27;7.88;;;4.53;;
51724;SDS011;37801;53.224;6.552;2023-02-08T13:23:54;7.97;;;4.63;;
51724;SDS011;37801;53.224;6.552;2023-02-08T13:26:25;9.02;;;4.43;;
51724;SDS011;37801;53.224;6.552;2023-02-08T13:28:53;8.80;;;4.53;;
51724;SDS011;37801;53.224;6.552;2023-02-08T13:31:27;7.60;;;4.75;;
51724;SDS011;37801;53.224;6.552;2023-02-08T13:33:55;6.55;;;4.35;;
51724;SDS011;37801;53.224;6.552;2023-02-08T13:36:30;7.63;;;4.35;;
51724;SDS011;37801;53.224;6.552;2023-02-08T13:38:58;7.70;;;4.45;;
51724;SDS011;37801;53.224;6.552;2023-02-08T13:41:25;7.75;;;4.28;;
51724;SDS011;37801;53.224;6.552;2023-02-08T13:43:53;9.23;;;4.05;;
51724;SDS011;37801;53.224;6.552;2023-02-08T13:46:22;7.93;;;4.35;;
51724;SDS011;37801;53.224;6.552;2023-02-08T13:48:53;8.60;;;4.40;;
51724;SDS011;37801;53.224;6.552;2023-02-08T13:52:03;8.95;;;4.68;;
51724;SDS011;37801;53.224;6.552;2023-02-08T13:54:11;8.48;;;4.15;;
51724;SDS011;37801;53.224;6.552;2023-02-08T14:04:43;7.47;;;4.18;;
51724;SDS011;37801;53.224;6.552;2023-02-08T14:12:12;6.95;;;4.00;;
51724;SDS011;37801;53.224;6.552;2023-02-08T14:14:40;9.25;;;4.53;;
51724;SDS011;37801;53.224;6.552;2023-02-08T14:17:07;7.93;;;4.38;;
51724;SDS011;37801;53.224;6.552;2023-02-08T14:19:35;8.52;;;4.70;;
51724;SDS011;37801;53.224;6.552;2023-02-08T14:22:06;7.57;;;4.18;;
51724;SDS011;37801;53.224;6.552;2023-02-08T14:24:41;6.03;;;4.10;;
51724;SDS011;37801;53.224;6.552;2023-02-08T14:27:23;8.63;;;4.35;;
51724;SDS011;37801;53.224;6.552;2023-02-08T14:32:33;8.55;;;4.10;;
51724;SDS011;37801;53.224;6.552;2023-02-08T14:35:05;4.78;;;3.28;;
51724;SDS011;37801;53.224;6.552;2023-02-08T14:37:33;7.63;;;4.13;;
51724;SDS011;37801;53.224;6.552;2023-02-08T14:43:05;7.07;;;4.03;;
51724;SDS011;37801;53.224;6.552;2023-02-08T14:50:49;5.85;;;3.45;;
51724;SDS011;37801;53.224;6.552;2023-02-08T14:55:49;5.60;;;3.30;;
51724;SDS011;37801;53.224;6.552;2023-02-08T14:58:22;5.53;;;3.10;;
51724;SDS011;37801;53.224;6.552;2023-02-08T15:00:50;4.38;;;2.90;;
51724;SDS011;37801;53.224;6.552;2023-02-08T15:03:17;5.90;;;3.15;;
51724;SDS011;37801;53.224;6.552;2023-02-08T15:05:46;6.20;;;3.15;;
51724;SDS011;37801;53.224;6.552;2023-02-08T15:08:18;8.30;;;3.47;;
51724;SDS011;37801;53.224;6.552;2023-02-08T15:10:45;6.40;;;3.33;;
51724;SDS011;37801;53.224;6.552;2023-02-08T15:13:16;6.13;;;3.70;;
51724;SDS011;37801;53.224;6.552;2023-02-08T15:15:42;8.50;;;3.50;;
51724;SDS011;37801;53.224;6.552;2023-02-08T15:18:15;5.88;;;3.47;;
51724;SDS011;37801;53.224;6.552;2023-02-08T15:20:43;7.05;;;3.22;;
51724;SDS011;37801;53.224;6.552;2023-02-08T15:23:19;5.80;;;3.08;;
51724;SDS011;37801;53.224;6.552;2023-02-08T15:25:59;4.95;;;3.08;;
51724;SDS011;37801;53.224;6.552;2023-02-08T15:28:26;6.82;;;3.70;;
51724;SDS011;37801;53.224;6.552;2023-02-08T15:31:04;5.80;;;3.45;;
51724;SDS011;37801;53.224;6.552;2023-02-08T15:33:31;6.18;;;3.97;;
51724;SDS011;37801;53.224;6.552;2023-02-08T15:35:59;6.25;;;3.60;;
51724;SDS011;37801;53.224;6.552;2023-02-08T15:38:25;5.63;;;3.47;;
51724;SDS011;37801;53.224;6.552;2023-02-08T15:41:06;6.95;;;3.90;;
51724;SDS011;37801;53.224;6.552;2023-02-08T15:43:33;7.10;;;3.95;;
51724;SDS011;37801;53.224;6.552;2023-02-08T15:46:01;6.32;;;3.45;;
51724;SDS011;37801;53.224;6.552;2023-02-08T15:48:27;7.03;;;3.22;;
51724;SDS011;37801;53.224;6.552;2023-02-08T15:50:54;8.60;;;3.53;;
51724;SDS011;37801;53.224;6.552;2023-02-08T15:53:21;6.78;;;3.58;;
51724;SDS011;37801;53.224;6.552;2023-02-08T15:55:51;5.65;;;3.40;;
51724;SDS011;37801;53.224;6.552;2023-02-08T16:00:52;4.65;;;3.08;;
51724;SDS011;37801;53.224;6.552;2023-02-08T16:03:19;6.20;;;3.80;;
51724;SDS011;37801;53.224;6.552;2023-02-08T16:05:51;5.28;;;3.15;;
51724;SDS011;37801;53.224;6.552;2023-02-08T16:08:23;7.72;;;4.00;;
51724;SDS011;37801;53.224;6.552;2023-02-08T16:11:07;6.32;;;3.78;;
51724;SDS011;37801;53.224;6.552;2023-02-08T16:13:35;6.72;;;3.75;;
51724;SDS011;37801;53.224;6.552;2023-02-08T16:23:54;7.65;;;4.47;;
51724;SDS011;37801;53.224;6.552;2023-02-08T16:28:50;8.00;;;3.95;;
51724;SDS011;37801;53.224;6.552;2023-02-08T16:31:18;7.63;;;4.68;;
51724;SDS011;37801;53.224;6.552;2023-02-08T16:33:45;7.82;;;4.47;;
51724;SDS011;37801;53.224;6.552;2023-02-08T16:36:21;6.75;;;4.22;;
51724;SDS011;37801;53.224;6.552;2023-02-08T16:39:18;6.93;;;4.20;;
51724;SDS011;37801;53.224;6.552;2023-02-08T16:44:25;8.15;;;4.68;;
51724;SDS011;37801;53.224;6.552;2023-02-08T16:46:52;7.65;;;4.50;;
51724;SDS011;37801;53.224;6.552;2023-02-08T16:49:18;7.55;;;4.53;;
51724;SDS011;37801;53.224;6.552;2023-02-08T16:51:44;9.40;;;4.85;;
51724;SDS011;37801;53.224;6.552;2023-02-08T16:54:11;8.20;;;4.82;;
51724;SDS011;37801;53.224;6.552;2023-02-08T16:56:38;8.45;;;4.97;;
51724;SDS011;37801;53.224;6.552;2023-02-08T16:59:05;8.60;;;4.93;;
51724;SDS011;37801;53.224;6.552;2023-02-08T17:01:32;7.22;;;4.35;;
51724;SDS011;37801;53.224;6.552;2023-02-08T17:03:58;9.30;;;5.13;;
51724;SDS011;37801;53.224;6.552;2023-02-08T17:08:54;9.40;;;5.05;;
51724;SDS011;37801;53.224;6.552;2023-02-08T17:11:20;7.78;;;4.80;;
51724;SDS011;37801;53.224;6.552;2023-02-08T17:13:46;9.63;;;5.18;;
51724;SDS011;37801;53.224;6.552;2023-02-08T17:16:17;8.68;;;5.10;;